sensor_id;sensor_type;location;lat;lon;timestamp;pressure;altitude;pressure_sealevel;temperature;humidity
59531;BME280;45349;48.692;8.186;2023-05-27T00:02:03;99286.94;;;12.29;86.08
59531;BME280;45349;48.692;8.186;2023-05-27T00:04:54;99277.03;;;12.22;86.08
59531;BME280;45349;48.692;8.186;2023-05-27T00:07:22;99276.66;;;12.17;86.69
59531;BME280;45349;48.692;8.186;2023-05-27T00:09:48;99277.41;;;12.09;85.56
59531;BME280;45349;48.692;8.186;2023-05-27T00:12:16;99274.91;;;12.08;86.35
59531;BME280;45349;48.692;8.186;2023-05-27T00:14:45;99280.00;;;12.09;86.75
59531;BME280;45349;48.692;8.186;2023-05-27T00:17:12;99282.91;;;12.06;86.11
59531;BME280;45349;48.692;8.186;2023-05-27T00:19:39;99270.66;;;11.97;86.42
59531;BME280;45349;48.692;8.186;2023-05-27T00:22:06;99275.91;;;11.97;86.31
59531;BME280;45349;48.692;8.186;2023-05-27T00:24:37;99284.28;;;12.01;85.92
59531;BME280;45349;48.692;8.186;2023-05-27T00:27:06;99270.09;;;11.93;84.81
59531;BME280;45349;48.692;8.186;2023-05-27T00:29:38;99276.44;;;12.10;83.83
59531;BME280;45349;48.692;8.186;2023-05-27T00:32:05;99275.84;;;12.17;83.30
59531;BME280;45349;48.692;8.186;2023-05-27T00:34:37;99267.31;;;12.15;84.25
59531;BME280;45349;48.692;8.186;2023-05-27T00:37:04;99267.03;;;12.18;83.23
59531;BME280;45349;48.692;8.186;2023-05-27T00:39:37;99267.72;;;12.10;82.85
59531;BME280;45349;48.692;8.186;2023-05-27T00:42:04;99274.63;;;12.11;80.36
59531;BME280;45349;48.692;8.186;2023-05-27T00:44:37;99265.38;;;12.17;82.73
59531;BME280;45349;48.692;8.186;2023-05-27T00:47:05;99264.03;;;12.13;82.27
59531;BME280;45349;48.692;8.186;2023-05-27T00:49:37;99266.38;;;12.34;78.24
59531;BME280;45349;48.692;8.186;2023-05-27T00:52:05;99255.81;;;12.25;79.14
59531;BME280;45349;48.692;8.186;2023-05-27T00:54:37;99264.34;;;12.28;80.07
59531;BME280;45349;48.692;8.186;2023-05-27T00:57:04;99248.28;;;12.40;79.70
59531;BME280;45349;48.692;8.186;2023-05-27T00:59:37;99263.84;;;12.42;77.76
59531;BME280;45349;48.692;8.186;2023-05-27T01:02:05;99259.72;;;12.39;76.78
59531;BME280;45349;48.692;8.186;2023-05-27T01:04:37;99256.69;;;12.44;75.39
59531;BME280;45349;48.692;8.186;2023-05-27T01:07:08;99252.63;;;12.50;76.61
59531;BME280;45349;48.692;8.186;2023-05-27T01:09:40;99253.50;;;12.40;76.98
59531;BME280;45349;48.692;8.186;2023-05-27T01:12:29;99255.47;;;12.38;77.13
59531;BME280;45349;48.692;8.186;2023-05-27T01:14:58;99261.63;;;12.47;77.00
59531;BME280;45349;48.692;8.186;2023-05-27T01:17:31;99253.38;;;12.42;76.96
59531;BME280;45349;48.692;8.186;2023-05-27T01:19:59;99254.78;;;12.36;77.75
59531;BME280;45349;48.692;8.186;2023-05-27T01:22:29;99249.72;;;12.35;76.59
59531;BME280;45349;48.692;8.186;2023-05-27T01:24:56;99246.41;;;12.33;77.35
59531;BME280;45349;48.692;8.186;2023-05-27T01:27:22;99235.72;;;12.44;78.24
59531;BME280;45349;48.692;8.186;2023-05-27T01:29:50;99235.78;;;12.34;77.51
59531;BME280;45349;48.692;8.186;2023-05-27T01:32:20;99229.47;;;12.27;77.60
59531;BME280;45349;48.692;8.186;2023-05-27T01:34:54;99234.03;;;12.25;79.79
59531;BME280;45349;48.692;8.186;2023-05-27T01:37:30;99231.88;;;12.20;78.46
59531;BME280;45349;48.692;8.186;2023-05-27T01:39:58;99225.56;;;12.13;78.05
59531;BME280;45349;48.692;8.186;2023-05-27T01:42:27;99224.47;;;12.16;80.87
59531;BME280;45349;48.692;8.186;2023-05-27T01:44:55;99222.56;;;12.08;80.00
59531;BME280;45349;48.692;8.186;2023-05-27T01:47:22;99214.31;;;12.13;80.17
59531;BME280;45349;48.692;8.186;2023-05-27T01:49:48;99209.34;;;12.09;81.08
59531;BME280;45349;48.692;8.186;2023-05-27T01:52:15;99217.03;;;12.11;78.51
59531;BME280;45349;48.692;8.186;2023-05-27T01:54:45;99222.84;;;12.05;80.03
59531;BME280;45349;48.692;8.186;2023-05-27T01:57:12;99214.50;;;12.01;81.24
59531;BME280;45349;48.692;8.186;2023-05-27T01:59:38;99215.16;;;12.03;82.13
59531;BME280;45349;48.692;8.186;2023-05-27T02:02:07;99214.03;;;12.06;83.14
59531;BME280;45349;48.692;8.186;2023-05-27T02:04:37;99212.44;;;11.95;82.03
59531;BME280;45349;48.692;8.186;2023-05-27T02:07:03;99211.19;;;11.89;81.17
59531;BME280;45349;48.692;8.186;2023-05-27T02:09:37;99197.72;;;11.84;81.54
59531;BME280;45349;48.692;8.186;2023-05-27T02:12:06;99209.44;;;11.80;81.21
59531;BME280;45349;48.692;8.186;2023-05-27T02:14:38;99202.38;;;11.90;83.45
59531;BME280;45349;48.692;8.186;2023-05-27T02:17:06;99197.34;;;11.79;82.76
59531;BME280;45349;48.692;8.186;2023-05-27T02:19:37;99194.88;;;11.77;82.39
59531;BME280;45349;48.692;8.186;2023-05-27T02:22:09;99192.66;;;11.82;83.49
59531;BME280;45349;48.692;8.186;2023-05-27T02:24:37;99189.78;;;11.76;83.33
59531;BME280;45349;48.692;8.186;2023-05-27T02:27:05;99186.34;;;11.75;82.63
59531;BME280;45349;48.692;8.186;2023-05-27T02:29:37;99187.84;;;11.78;83.76
59531;BME280;45349;48.692;8.186;2023-05-27T02:32:04;99190.91;;;11.73;83.62
59531;BME280;45349;48.692;8.186;2023-05-27T02:34:37;99187.72;;;11.70;83.84
59531;BME280;45349;48.692;8.186;2023-05-27T02:37:04;99187.44;;;11.73;85.90
59531;BME280;45349;48.692;8.186;2023-05-27T02:39:37;99179.66;;;11.63;85.70
59531;BME280;45349;48.692;8.186;2023-05-27T02:42:07;99183.78;;;11.65;86.60
59531;BME280;45349;48.692;8.186;2023-05-27T02:44:37;99181.47;;;11.52;85.46
59531;BME280;45349;48.692;8.186;2023-05-27T02:47:04;99181.63;;;11.51;87.58
59531;BME280;45349;48.692;8.186;2023-05-27T02:49:58;99183.13;;;11.54;87.97
59531;BME280;45349;48.692;8.186;2023-05-27T02:52:25;99187.44;;;11.45;87.98
59531;BME280;45349;48.692;8.186;2023-05-27T02:54:51;99177.94;;;11.44;87.46
59531;BME280;45349;48.692;8.186;2023-05-27T02:57:19;99180.72;;;11.32;87.28
59531;BME280;45349;48.692;8.186;2023-05-27T02:59:46;99178.69;;;11.26;88.03
59531;BME280;45349;48.692;8.186;2023-05-27T03:02:12;99178.53;;;11.28;88.42
59531;BME280;45349;48.692;8.186;2023-05-27T03:04:39;99176.63;;;11.20;87.97
59531;BME280;45349;48.692;8.186;2023-05-27T03:07:06;99176.06;;;11.16;88.97
59531;BME280;45349;48.692;8.186;2023-05-27T03:09:37;99172.13;;;11.12;88.88
59531;BME280;45349;48.692;8.186;2023-05-27T03:12:04;99177.47;;;11.11;90.76
59531;BME280;45349;48.692;8.186;2023-05-27T03:14:38;99173.22;;;11.10;89.18
59531;BME280;45349;48.692;8.186;2023-05-27T03:17:05;99180.25;;;10.99;89.63
59531;BME280;45349;48.692;8.186;2023-05-27T03:19:37;99184.38;;;10.92;90.43
59531;BME280;45349;48.692;8.186;2023-05-27T03:22:04;99185.63;;;10.88;90.76
59531;BME280;45349;48.692;8.186;2023-05-27T03:24:38;99198.94;;;10.85;91.27
59531;BME280;45349;48.692;8.186;2023-05-27T03:27:05;99191.66;;;10.78;91.56
59531;BME280;45349;48.692;8.186;2023-05-27T03:29:42;99191.81;;;10.77;92.18
59531;BME280;45349;48.692;8.186;2023-05-27T03:32:09;99191.41;;;10.72;91.98
59531;BME280;45349;48.692;8.186;2023-05-27T03:34:38;99190.56;;;10.71;93.46
59531;BME280;45349;48.692;8.186;2023-05-27T03:37:05;99195.53;;;10.65;93.23
59531;BME280;45349;48.692;8.186;2023-05-27T03:39:48;99192.34;;;10.61;92.91
59531;BME280;45349;48.692;8.186;2023-05-27T03:42:14;99193.03;;;10.63;94.26
59531;BME280;45349;48.692;8.186;2023-05-27T03:44:42;99192.50;;;10.69;93.80
59531;BME280;45349;48.692;8.186;2023-05-27T03:47:09;99196.75;;;10.70;93.88
59531;BME280;45349;48.692;8.186;2023-05-27T03:49:37;99200.03;;;10.72;93.63
59531;BME280;45349;48.692;8.186;2023-05-27T03:52:06;99188.91;;;10.70;94.52
59531;BME280;45349;48.692;8.186;2023-05-27T03:54:37;99199.09;;;10.73;94.00
59531;BME280;45349;48.692;8.186;2023-05-27T03:57:04;99186.59;;;10.77;93.27
59531;BME280;45349;48.692;8.186;2023-05-27T03:59:35;99199.91;;;10.84;92.63
59531;BME280;45349;48.692;8.186;2023-05-27T04:02:03;99195.94;;;10.89;94.64
59531;BME280;45349;48.692;8.186;2023-05-27T04:04:55;99195.66;;;10.92;93.61
59531;BME280;45349;48.692;8.186;2023-05-27T04:07:22;99198.00;;;10.96;93.37
59531;BME280;45349;48.692;8.186;2023-05-27T04:09:52;99190.00;;;10.97;93.73
59531;BME280;45349;48.692;8.186;2023-05-27T04:12:18;99196.06;;;10.98;93.37
59531;BME280;45349;48.692;8.186;2023-05-27T04:14:48;99198.00;;;10.96;93.72
59531;BME280;45349;48.692;8.186;2023-05-27T04:17:16;99201.97;;;11.00;93.15
59531;BME280;45349;48.692;8.186;2023-05-27T04:19:43;99200.19;;;11.00;93.92
59531;BME280;45349;48.692;8.186;2023-05-27T04:22:10;99194.41;;;11.06;94.27
59531;BME280;45349;48.692;8.186;2023-05-27T04:24:41;99191.94;;;11.05;93.83
59531;BME280;45349;48.692;8.186;2023-05-27T04:27:09;99193.44;;;11.07;94.60
59531;BME280;45349;48.692;8.186;2023-05-27T04:29:37;99196.97;;;11.16;93.66
59531;BME280;45349;48.692;8.186;2023-05-27T04:32:05;99193.81;;;11.22;94.12
59531;BME280;45349;48.692;8.186;2023-05-27T04:34:38;99198.19;;;11.42;88.44
59531;BME280;45349;48.692;8.186;2023-05-27T04:37:07;99192.91;;;11.51;90.41
59531;BME280;45349;48.692;8.186;2023-05-27T04:39:37;99193.56;;;11.63;88.24
59531;BME280;45349;48.692;8.186;2023-05-27T04:42:11;99197.88;;;11.82;88.05
59531;BME280;45349;48.692;8.186;2023-05-27T04:44:43;99200.06;;;11.87;88.52
59531;BME280;45349;48.692;8.186;2023-05-27T04:47:10;99190.66;;;11.94;89.08
59531;BME280;45349;48.692;8.186;2023-05-27T04:49:40;99198.91;;;12.00;88.74
59531;BME280;45349;48.692;8.186;2023-05-27T04:52:06;99199.19;;;12.06;89.01
59531;BME280;45349;48.692;8.186;2023-05-27T04:54:37;99187.59;;;12.09;89.76
59531;BME280;45349;48.692;8.186;2023-05-27T04:57:12;99188.66;;;12.16;89.06
59531;BME280;45349;48.692;8.186;2023-05-27T04:59:43;99198.97;;;12.18;88.26
59531;BME280;45349;48.692;8.186;2023-05-27T05:02:25;99193.81;;;12.26;88.12
59531;BME280;45349;48.692;8.186;2023-05-27T05:05:07;99192.69;;;12.29;89.51
59531;BME280;45349;48.692;8.186;2023-05-27T05:07:35;99191.44;;;12.33;89.00
59531;BME280;45349;48.692;8.186;2023-05-27T05:10:04;99191.66;;;12.39;87.95
59531;BME280;45349;48.692;8.186;2023-05-27T05:12:35;99198.09;;;12.45;87.18
59531;BME280;45349;48.692;8.186;2023-05-27T05:15:02;99206.84;;;12.54;87.30
59531;BME280;45349;48.692;8.186;2023-05-27T05:17:29;99195.78;;;12.60;87.71
59531;BME280;45349;48.692;8.186;2023-05-27T05:19:57;99203.56;;;12.70;87.65
59531;BME280;45349;48.692;8.186;2023-05-27T05:22:27;99200.50;;;12.75;86.93
59531;BME280;45349;48.692;8.186;2023-05-27T05:24:54;99203.84;;;12.85;84.27
59531;BME280;45349;48.692;8.186;2023-05-27T05:27:29;99207.72;;;12.99;84.24
59531;BME280;45349;48.692;8.186;2023-05-27T05:29:57;99210.09;;;13.10;85.69
59531;BME280;45349;48.692;8.186;2023-05-27T05:32:23;99209.34;;;13.18;84.40
59531;BME280;45349;48.692;8.186;2023-05-27T05:34:53;99209.38;;;13.26;84.04
59531;BME280;45349;48.692;8.186;2023-05-27T05:37:20;99200.59;;;13.36;83.70
59531;BME280;45349;48.692;8.186;2023-05-27T05:39:49;99204.94;;;13.45;83.67
59531;BME280;45349;48.692;8.186;2023-05-27T05:42:16;99206.19;;;13.59;82.58
59531;BME280;45349;48.692;8.186;2023-05-27T05:44:42;99213.06;;;13.60;80.29
59531;BME280;45349;48.692;8.186;2023-05-27T05:47:10;99209.53;;;13.69;81.25
59531;BME280;45349;48.692;8.186;2023-05-27T05:49:38;99204.19;;;13.87;80.49
59531;BME280;45349;48.692;8.186;2023-05-27T05:52:08;99211.59;;;14.00;79.23
59531;BME280;45349;48.692;8.186;2023-05-27T05:54:37;99212.00;;;14.22;77.18
59531;BME280;45349;48.692;8.186;2023-05-27T05:57:05;99207.41;;;14.24;72.67
59531;BME280;45349;48.692;8.186;2023-05-27T05:59:38;99208.72;;;14.20;74.38
59531;BME280;45349;48.692;8.186;2023-05-27T06:02:05;99212.84;;;14.39;75.11
59531;BME280;45349;48.692;8.186;2023-05-27T06:04:37;99223.38;;;14.56;72.63
59531;BME280;45349;48.692;8.186;2023-05-27T06:07:04;99224.69;;;14.52;71.54
59531;BME280;45349;48.692;8.186;2023-05-27T06:09:39;99220.63;;;14.66;73.50
59531;BME280;45349;48.692;8.186;2023-05-27T06:12:14;99228.19;;;14.85;73.68
59531;BME280;45349;48.692;8.186;2023-05-27T06:14:44;99218.84;;;14.99;72.99
59531;BME280;45349;48.692;8.186;2023-05-27T06:17:20;99219.31;;;15.19;74.38
59531;BME280;45349;48.692;8.186;2023-05-27T06:19:47;99227.06;;;15.13;69.77
59531;BME280;45349;48.692;8.186;2023-05-27T06:22:14;99226.22;;;15.29;69.29
59531;BME280;45349;48.692;8.186;2023-05-27T06:25:18;99227.66;;;15.48;67.79
59531;BME280;45349;48.692;8.186;2023-05-27T06:27:55;99234.22;;;15.52;68.40
59531;BME280;45349;48.692;8.186;2023-05-27T06:30:22;99232.72;;;15.74;68.38
59531;BME280;45349;48.692;8.186;2023-05-27T06:32:49;99230.75;;;15.68;66.43
59531;BME280;45349;48.692;8.186;2023-05-27T06:35:18;99234.00;;;15.78;66.40
59531;BME280;45349;48.692;8.186;2023-05-27T06:37:46;99234.47;;;15.82;65.58
59531;BME280;45349;48.692;8.186;2023-05-27T06:40:12;99229.19;;;15.99;65.52
59531;BME280;45349;48.692;8.186;2023-05-27T06:42:39;99230.00;;;15.99;68.02
59531;BME280;45349;48.692;8.186;2023-05-27T06:45:19;99231.72;;;16.23;67.52
59531;BME280;45349;48.692;8.186;2023-05-27T06:47:51;99232.06;;;16.20;64.05
59531;BME280;45349;48.692;8.186;2023-05-27T06:50:18;99232.09;;;16.12;65.06
59531;BME280;45349;48.692;8.186;2023-05-27T06:52:44;99236.13;;;16.23;65.43
59531;BME280;45349;48.692;8.186;2023-05-27T06:55:22;99230.38;;;16.28;64.69
59531;BME280;45349;48.692;8.186;2023-05-27T06:58:14;99222.81;;;16.25;64.21
59531;BME280;45349;48.692;8.186;2023-05-27T07:00:56;99232.22;;;16.19;65.71
59531;BME280;45349;48.692;8.186;2023-05-27T07:03:28;99234.13;;;16.33;64.71
59531;BME280;45349;48.692;8.186;2023-05-27T07:05:54;99233.25;;;16.41;63.16
59531;BME280;45349;48.692;8.186;2023-05-27T07:08:23;99237.69;;;16.41;65.14
59531;BME280;45349;48.692;8.186;2023-05-27T07:11:02;99234.66;;;16.52;64.22
59531;BME280;45349;48.692;8.186;2023-05-27T07:13:29;99239.69;;;16.62;63.45
59531;BME280;45349;48.692;8.186;2023-05-27T07:15:58;99244.34;;;16.83;63.06
59531;BME280;45349;48.692;8.186;2023-05-27T07:18:25;99246.63;;;16.86;61.91
59531;BME280;45349;48.692;8.186;2023-05-27T07:20:55;99247.91;;;16.90;61.62
59531;BME280;45349;48.692;8.186;2023-05-27T07:23:23;99246.28;;;16.89;61.59
59531;BME280;45349;48.692;8.186;2023-05-27T07:26:02;99255.41;;;17.02;62.03
59531;BME280;45349;48.692;8.186;2023-05-27T07:28:29;99254.13;;;17.21;62.41
59531;BME280;45349;48.692;8.186;2023-05-27T07:31:08;99251.66;;;17.19;61.36
59531;BME280;45349;48.692;8.186;2023-05-27T07:33:41;99248.28;;;17.25;62.10
59531;BME280;45349;48.692;8.186;2023-05-27T07:36:09;99239.78;;;17.38;62.33
59531;BME280;45349;48.692;8.186;2023-05-27T07:38:36;99245.72;;;17.55;62.03
59531;BME280;45349;48.692;8.186;2023-05-27T07:41:03;99242.59;;;17.37;62.51
59531;BME280;45349;48.692;8.186;2023-05-27T07:43:29;99234.69;;;17.37;62.17
59531;BME280;45349;48.692;8.186;2023-05-27T07:45:56;99230.59;;;17.64;61.58
59531;BME280;45349;48.692;8.186;2023-05-27T07:48:24;99230.69;;;17.71;60.20
59531;BME280;45349;48.692;8.186;2023-05-27T07:50:50;99220.47;;;17.83;59.61
59531;BME280;45349;48.692;8.186;2023-05-27T07:53:18;99224.59;;;17.70;60.18
59531;BME280;45349;48.692;8.186;2023-05-27T07:55:45;99225.88;;;17.90;60.10
59531;BME280;45349;48.692;8.186;2023-05-27T07:58:12;99223.03;;;18.06;59.31
59531;BME280;45349;48.692;8.186;2023-05-27T08:00:49;99226.78;;;17.97;59.19
59531;BME280;45349;48.692;8.186;2023-05-27T08:03:15;99225.41;;;18.16;58.26
59531;BME280;45349;48.692;8.186;2023-05-27T08:05:56;99231.38;;;18.25;58.56
59531;BME280;45349;48.692;8.186;2023-05-27T08:08:41;99224.75;;;18.14;59.47
59531;BME280;45349;48.692;8.186;2023-05-27T08:11:09;99233.50;;;18.14;59.25
59531;BME280;45349;48.692;8.186;2023-05-27T08:14:05;99217.25;;;18.33;58.10
59531;BME280;45349;48.692;8.186;2023-05-27T08:16:40;99216.81;;;18.51;57.91
59531;BME280;45349;48.692;8.186;2023-05-27T08:19:33;99217.41;;;18.31;57.33
59531;BME280;45349;48.692;8.186;2023-05-27T08:22:19;99208.06;;;18.50;58.28
59531;BME280;45349;48.692;8.186;2023-05-27T08:25:05;99213.50;;;18.27;59.47
59531;BME280;45349;48.692;8.186;2023-05-27T08:27:45;99204.47;;;18.36;59.19
59531;BME280;45349;48.692;8.186;2023-05-27T08:30:19;99204.09;;;18.61;58.19
59531;BME280;45349;48.692;8.186;2023-05-27T08:32:54;99206.41;;;18.93;58.99
59531;BME280;45349;48.692;8.186;2023-05-27T08:35:21;99199.75;;;18.97;55.94
59531;BME280;45349;48.692;8.186;2023-05-27T08:37:49;99188.84;;;18.85;57.97
59531;BME280;45349;48.692;8.186;2023-05-27T08:40:18;99199.94;;;18.95;58.73
59531;BME280;45349;48.692;8.186;2023-05-27T08:42:47;99187.34;;;18.76;58.25
59531;BME280;45349;48.692;8.186;2023-05-27T08:45:15;99184.50;;;18.99;58.01
59531;BME280;45349;48.692;8.186;2023-05-27T08:47:42;99185.66;;;19.18;56.79
59531;BME280;45349;48.692;8.186;2023-05-27T08:50:15;99181.84;;;19.27;57.02
59531;BME280;45349;48.692;8.186;2023-05-27T08:52:45;99186.09;;;19.22;57.54
59531;BME280;45349;48.692;8.186;2023-05-27T08:55:15;99180.13;;;19.41;55.95
59531;BME280;45349;48.692;8.186;2023-05-27T08:57:46;99177.19;;;19.29;57.40
59531;BME280;45349;48.692;8.186;2023-05-27T09:00:17;99178.31;;;19.49;57.32
59531;BME280;45349;48.692;8.186;2023-05-27T09:02:45;99173.97;;;19.76;56.39
59531;BME280;45349;48.692;8.186;2023-05-27T09:05:13;99168.66;;;19.76;56.33
59531;BME280;45349;48.692;8.186;2023-05-27T09:07:41;99167.75;;;19.90;56.43
59531;BME280;45349;48.692;8.186;2023-05-27T09:10:08;99165.28;;;19.89;55.78
59531;BME280;45349;48.692;8.186;2023-05-27T09:12:37;99166.38;;;20.21;56.24
59531;BME280;45349;48.692;8.186;2023-05-27T09:15:04;99173.19;;;20.51;57.11
59531;BME280;45349;48.692;8.186;2023-05-27T09:17:31;99164.00;;;20.54;52.26
59531;BME280;45349;48.692;8.186;2023-05-27T09:19:57;99157.06;;;20.66;53.44
59531;BME280;45349;48.692;8.186;2023-05-27T09:22:25;99150.53;;;20.75;53.47
59531;BME280;45349;48.692;8.186;2023-05-27T09:24:52;99153.22;;;20.82;52.57
59531;BME280;45349;48.692;8.186;2023-05-27T09:27:24;99160.53;;;20.93;52.54
59531;BME280;45349;48.692;8.186;2023-05-27T09:29:53;99148.53;;;20.91;53.27
59531;BME280;45349;48.692;8.186;2023-05-27T09:32:26;99158.50;;;21.09;51.47
59531;BME280;45349;48.692;8.186;2023-05-27T09:34:53;99154.19;;;21.21;50.27
59531;BME280;45349;48.692;8.186;2023-05-27T09:37:24;99154.44;;;21.06;50.05
59531;BME280;45349;48.692;8.186;2023-05-27T09:39:51;99148.88;;;21.21;50.65
59531;BME280;45349;48.692;8.186;2023-05-27T09:42:18;99154.34;;;21.33;50.57
59531;BME280;45349;48.692;8.186;2023-05-27T09:44:46;99151.13;;;21.24;50.20
59531;BME280;45349;48.692;8.186;2023-05-27T09:47:17;99143.72;;;21.33;49.33
59531;BME280;45349;48.692;8.186;2023-05-27T09:49:48;99147.03;;;21.29;49.22
59531;BME280;45349;48.692;8.186;2023-05-27T09:52:17;99153.72;;;21.45;49.95
59531;BME280;45349;48.692;8.186;2023-05-27T09:54:46;99154.44;;;21.06;49.77
59531;BME280;45349;48.692;8.186;2023-05-27T09:57:14;99141.78;;;21.08;49.46
59531;BME280;45349;48.692;8.186;2023-05-27T09:59:41;99138.53;;;20.93;50.55
59531;BME280;45349;48.692;8.186;2023-05-27T10:02:10;99138.91;;;21.17;51.01
59531;BME280;45349;48.692;8.186;2023-05-27T10:04:44;99133.19;;;21.06;49.05
59531;BME280;45349;48.692;8.186;2023-05-27T10:07:15;99144.81;;;21.19;50.30
59531;BME280;45349;48.692;8.186;2023-05-27T10:09:45;99132.28;;;21.46;50.50
59531;BME280;45349;48.692;8.186;2023-05-27T10:12:13;99128.69;;;21.07;49.80
59531;BME280;45349;48.692;8.186;2023-05-27T10:14:41;99126.47;;;20.97;49.20
59531;BME280;45349;48.692;8.186;2023-05-27T10:17:09;99118.63;;;21.29;50.65
59531;BME280;45349;48.692;8.186;2023-05-27T10:19:52;99114.66;;;21.65;49.60
59531;BME280;45349;48.692;8.186;2023-05-27T10:22:19;99115.47;;;21.66;48.02
59531;BME280;45349;48.692;8.186;2023-05-27T10:24:46;99107.41;;;21.79;48.24
59531;BME280;45349;48.692;8.186;2023-05-27T10:27:15;99113.19;;;21.70;49.59
59531;BME280;45349;48.692;8.186;2023-05-27T10:29:42;99107.16;;;21.88;48.88
59531;BME280;45349;48.692;8.186;2023-05-27T10:32:08;99117.06;;;21.74;47.64
59531;BME280;45349;48.692;8.186;2023-05-27T10:34:42;99103.22;;;21.97;48.16
59531;BME280;45349;48.692;8.186;2023-05-27T10:37:19;99104.69;;;22.25;48.51
59531;BME280;45349;48.692;8.186;2023-05-27T10:39:53;99098.50;;;22.06;48.72
59531;BME280;45349;48.692;8.186;2023-05-27T10:42:21;99103.16;;;22.10;47.63
59531;BME280;45349;48.692;8.186;2023-05-27T10:44:47;99104.09;;;21.91;47.46
59531;BME280;45349;48.692;8.186;2023-05-27T10:47:14;99100.56;;;21.97;47.86
59531;BME280;45349;48.692;8.186;2023-05-27T10:49:45;99107.53;;;21.98;47.41
59531;BME280;45349;48.692;8.186;2023-05-27T10:52:15;99105.09;;;21.96;47.14
59531;BME280;45349;48.692;8.186;2023-05-27T10:54:43;99094.88;;;22.25;47.72
59531;BME280;45349;48.692;8.186;2023-05-27T10:57:11;99107.19;;;22.52;47.67
59531;BME280;45349;48.692;8.186;2023-05-27T10:59:40;99091.72;;;22.35;47.40
59531;BME280;45349;48.692;8.186;2023-05-27T11:02:08;99083.28;;;22.45;47.27
59531;BME280;45349;48.692;8.186;2023-05-27T11:04:37;99090.19;;;22.21;47.41
59531;BME280;45349;48.692;8.186;2023-05-27T11:07:04;99091.44;;;22.50;47.65
59531;BME280;45349;48.692;8.186;2023-05-27T11:09:45;99091.00;;;22.79;46.78
59531;BME280;45349;48.692;8.186;2023-05-27T11:12:16;99090.22;;;22.72;46.11
59531;BME280;45349;48.692;8.186;2023-05-27T11:14:43;99087.56;;;22.46;46.40
59531;BME280;45349;48.692;8.186;2023-05-27T11:17:10;99077.56;;;22.67;45.76
59531;BME280;45349;48.692;8.186;2023-05-27T11:19:38;99080.19;;;22.92;45.43
59531;BME280;45349;48.692;8.186;2023-05-27T11:22:05;99071.09;;;23.00;45.43
59531;BME280;45349;48.692;8.186;2023-05-27T11:24:37;99070.72;;;23.15;43.42
59531;BME280;45349;48.692;8.186;2023-05-27T11:27:09;99056.22;;;22.92;43.22
59531;BME280;45349;48.692;8.186;2023-05-27T11:29:37;99052.31;;;23.32;41.71
59531;BME280;45349;48.692;8.186;2023-05-27T11:32:04;99043.19;;;23.58;37.97
59531;BME280;45349;48.692;8.186;2023-05-27T11:34:37;99048.06;;;23.62;41.88
59531;BME280;45349;48.692;8.186;2023-05-27T11:37:04;99045.97;;;23.64;42.76
59531;BME280;45349;48.692;8.186;2023-05-27T11:39:37;99041.59;;;23.39;43.21
59531;BME280;45349;48.692;8.186;2023-05-27T11:42:05;99034.31;;;23.46;43.38
59531;BME280;45349;48.692;8.186;2023-05-27T11:44:49;99031.88;;;23.75;42.36
59531;BME280;45349;48.692;8.186;2023-05-27T11:47:17;99033.47;;;23.64;43.10
59531;BME280;45349;48.692;8.186;2023-05-27T11:49:43;99031.25;;;23.61;41.75
59531;BME280;45349;48.692;8.186;2023-05-27T11:52:10;99031.00;;;23.93;41.06
59531;BME280;45349;48.692;8.186;2023-05-27T11:54:37;99015.13;;;23.56;41.01
59531;BME280;45349;48.692;8.186;2023-05-27T11:57:04;99022.41;;;23.79;42.18
59531;BME280;45349;48.692;8.186;2023-05-27T11:59:38;99020.63;;;24.03;40.05
59531;BME280;45349;48.692;8.186;2023-05-27T12:02:05;99025.19;;;23.84;41.46
59531;BME280;45349;48.692;8.186;2023-05-27T12:04:37;99017.66;;;23.93;41.88
59531;BME280;45349;48.692;8.186;2023-05-27T12:07:04;99011.69;;;23.67;42.18
59531;BME280;45349;48.692;8.186;2023-05-27T12:09:37;99012.19;;;23.76;40.72
59531;BME280;45349;48.692;8.186;2023-05-27T12:12:04;99013.97;;;23.94;41.98
59531;BME280;45349;48.692;8.186;2023-05-27T12:14:39;99010.00;;;23.85;41.38
59531;BME280;45349;48.692;8.186;2023-05-27T12:17:05;99005.84;;;23.89;41.53
59531;BME280;45349;48.692;8.186;2023-05-27T12:19:37;99008.78;;;24.11;41.79
59531;BME280;45349;48.692;8.186;2023-05-27T12:22:04;99018.41;;;24.12;42.10
59531;BME280;45349;48.692;8.186;2023-05-27T12:24:37;99003.56;;;24.16;40.83
59531;BME280;45349;48.692;8.186;2023-05-27T12:27:04;98998.25;;;24.16;40.21
59531;BME280;45349;48.692;8.186;2023-05-27T12:29:38;99005.00;;;23.77;41.19
59531;BME280;45349;48.692;8.186;2023-05-27T12:32:05;98999.28;;;24.15;41.45
59531;BME280;45349;48.692;8.186;2023-05-27T12:34:37;98998.81;;;24.18;40.73
59531;BME280;45349;48.692;8.186;2023-05-27T12:37:04;98995.44;;;23.99;40.73
59531;BME280;45349;48.692;8.186;2023-05-27T12:39:55;98988.50;;;24.10;41.18
59531;BME280;45349;48.692;8.186;2023-05-27T12:42:21;98989.97;;;23.94;40.67
59531;BME280;45349;48.692;8.186;2023-05-27T12:44:50;98995.94;;;24.20;42.26
59531;BME280;45349;48.692;8.186;2023-05-27T12:47:18;98985.75;;;23.74;40.91
59531;BME280;45349;48.692;8.186;2023-05-27T12:49:45;98990.25;;;24.16;41.17
59531;BME280;45349;48.692;8.186;2023-05-27T12:52:11;98979.34;;;24.30;41.74
59531;BME280;45349;48.692;8.186;2023-05-27T12:54:38;98980.75;;;24.32;40.22
59531;BME280;45349;48.692;8.186;2023-05-27T12:57:04;98971.00;;;24.14;40.58
59531;BME280;45349;48.692;8.186;2023-05-27T12:59:37;98969.38;;;24.01;40.58
59531;BME280;45349;48.692;8.186;2023-05-27T13:02:05;98967.34;;;23.85;40.77
59531;BME280;45349;48.692;8.186;2023-05-27T13:04:37;98962.78;;;24.16;40.20
59531;BME280;45349;48.692;8.186;2023-05-27T13:07:04;98962.59;;;24.58;39.85
59531;BME280;45349;48.692;8.186;2023-05-27T13:09:55;98958.78;;;24.54;39.11
59531;BME280;45349;48.692;8.186;2023-05-27T13:12:22;98956.25;;;24.24;40.16
59531;BME280;45349;48.692;8.186;2023-05-27T13:14:49;98948.13;;;24.42;37.67
59531;BME280;45349;48.692;8.186;2023-05-27T13:17:17;98942.69;;;24.13;37.55